sensor_id;sensor_type;location;lat;lon;timestamp;temperature;humidity
51908;DHT22;39320;53.214;6.556;2023-07-16T00:02:25;19.00;99.90
51908;DHT22;39320;53.214;6.556;2023-07-16T00:04:50;18.90;99.90
51908;DHT22;39320;53.214;6.556;2023-07-16T00:07:16;19.00;99.90
51908;DHT22;39320;53.214;6.556;2023-07-16T00:09:43;18.90;99.90
51908;DHT22;39320;53.214;6.556;2023-07-16T00:12:09;18.90;99.90
51908;DHT22;39320;53.214;6.556;2023-07-16T00:14:34;18.90;99.90
51908;DHT22;39320;53.214;6.556;2023-07-16T00:17:00;18.90;99.90
51908;DHT22;39320;53.214;6.556;2023-07-16T00:19:26;18.90;99.90
51908;DHT22;39320;53.214;6.556;2023-07-16T00:21:52;18.90;99.90
51908;DHT22;39320;53.214;6.556;2023-07-16T00:24:17;18.90;99.90
51908;DHT22;39320;53.214;6.556;2023-07-16T00:26:43;18.80;99.90
51908;DHT22;39320;53.214;6.556;2023-07-16T00:29:09;18.80;99.90
51908;DHT22;39320;53.214;6.556;2023-07-16T00:31:35;18.70;99.90
51908;DHT22;39320;53.214;6.556;2023-07-16T00:34:00;18.70;99.90
51908;DHT22;39320;53.214;6.556;2023-07-16T00:36:26;18.70;99.90
51908;DHT22;39320;53.214;6.556;2023-07-16T00:38:52;18.70;99.90
51908;DHT22;39320;53.214;6.556;2023-07-16T00:41:17;18.70;99.90
51908;DHT22;39320;53.214;6.556;2023-07-16T00:43:43;18.60;99.90
51908;DHT22;39320;53.214;6.556;2023-07-16T00:46:10;18.50;99.90
51908;DHT22;39320;53.214;6.556;2023-07-16T00:48:36;18.60;99.90
51908;DHT22;39320;53.214;6.556;2023-07-16T00:51:02;18.60;99.90
51908;DHT22;39320;53.214;6.556;2023-07-16T00:53:30;18.60;99.90
51908;DHT22;39320;53.214;6.556;2023-07-16T00:55:55;18.60;99.90
51908;DHT22;39320;53.214;6.556;2023-07-16T00:58:21;18.60;99.90
51908;DHT22;39320;53.214;6.556;2023-07-16T01:00:47;18.60;99.90
51908;DHT22;39320;53.214;6.556;2023-07-16T01:03:14;18.60;99.90
51908;DHT22;39320;53.214;6.556;2023-07-16T01:08:36;18.60;99.90
51908;DHT22;39320;53.214;6.556;2023-07-16T01:11:04;18.50;99.90
51908;DHT22;39320;53.214;6.556;2023-07-16T01:13:30;18.50;99.90
51908;DHT22;39320;53.214;6.556;2023-07-16T01:15:57;18.40;99.90
51908;DHT22;39320;53.214;6.556;2023-07-16T01:18:23;18.40;99.90
51908;DHT22;39320;53.214;6.556;2023-07-16T01:20:48;18.40;99.90
51908;DHT22;39320;53.214;6.556;2023-07-16T01:29:27;18.40;99.90
51908;DHT22;39320;53.214;6.556;2023-07-16T01:31:55;18.40;99.90
51908;DHT22;39320;53.214;6.556;2023-07-16T01:34:21;18.40;99.90
51908;DHT22;39320;53.214;6.556;2023-07-16T01:36:48;18.50;99.90
51908;DHT22;39320;53.214;6.556;2023-07-16T01:39:15;18.50;99.90
51908;DHT22;39320;53.214;6.556;2023-07-16T01:41:41;18.50;99.90
51908;DHT22;39320;53.214;6.556;2023-07-16T01:44:07;18.50;99.90
51908;DHT22;39320;53.214;6.556;2023-07-16T01:46:33;18.50;99.90
51908;DHT22;39320;53.214;6.556;2023-07-16T01:48:59;18.50;99.90
51908;DHT22;39320;53.214;6.556;2023-07-16T01:51:24;18.50;99.90
51908;DHT22;39320;53.214;6.556;2023-07-16T01:53:50;18.50;99.90
51908;DHT22;39320;53.214;6.556;2023-07-16T01:56:16;18.50;99.90
51908;DHT22;39320;53.214;6.556;2023-07-16T01:58:42;18.50;99.90
51908;DHT22;39320;53.214;6.556;2023-07-16T02:01:08;18.50;99.90
51908;DHT22;39320;53.214;6.556;2023-07-16T02:03:36;18.50;99.90
51908;DHT22;39320;53.214;6.556;2023-07-16T02:06:02;18.50;99.90
51908;DHT22;39320;53.214;6.556;2023-07-16T02:08:28;18.40;99.90
51908;DHT22;39320;53.214;6.556;2023-07-16T02:10:53;18.50;99.90
51908;DHT22;39320;53.214;6.556;2023-07-16T02:13:19;18.40;99.90
51908;DHT22;39320;53.214;6.556;2023-07-16T02:15:45;18.40;99.90
51908;DHT22;39320;53.214;6.556;2023-07-16T02:18:11;18.40;99.90
51908;DHT22;39320;53.214;6.556;2023-07-16T02:20:36;18.30;99.90
51908;DHT22;39320;53.214;6.556;2023-07-16T02:23:02;18.30;99.90
51908;DHT22;39320;53.214;6.556;2023-07-16T02:25:28;18.30;99.90
51908;DHT22;39320;53.214;6.556;2023-07-16T02:27:53;18.30;99.90
51908;DHT22;39320;53.214;6.556;2023-07-16T02:30:19;18.30;99.90
51908;DHT22;39320;53.214;6.556;2023-07-16T02:32:45;18.30;99.90
51908;DHT22;39320;53.214;6.556;2023-07-16T02:35:11;18.20;99.90
51908;DHT22;39320;53.214;6.556;2023-07-16T02:37:37;18.20;99.90
51908;DHT22;39320;53.214;6.556;2023-07-16T02:40:03;18.20;99.90
51908;DHT22;39320;53.214;6.556;2023-07-16T02:42:29;18.20;99.90
51908;DHT22;39320;53.214;6.556;2023-07-16T02:44:55;18.20;99.90
51908;DHT22;39320;53.214;6.556;2023-07-16T02:47:20;18.20;99.90
51908;DHT22;39320;53.214;6.556;2023-07-16T02:49:46;18.20;99.90
51908;DHT22;39320;53.214;6.556;2023-07-16T02:52:12;18.20;99.90
51908;DHT22;39320;53.214;6.556;2023-07-16T02:54:38;18.20;99.90
51908;DHT22;39320;53.214;6.556;2023-07-16T02:57:04;18.20;99.90
51908;DHT22;39320;53.214;6.556;2023-07-16T02:59:30;18.20;99.90
51908;DHT22;39320;53.214;6.556;2023-07-16T03:01:56;18.10;99.90
51908;DHT22;39320;53.214;6.556;2023-07-16T03:04:22;18.20;99.90
51908;DHT22;39320;53.214;6.556;2023-07-16T03:06:47;18.20;99.90
51908;DHT22;39320;53.214;6.556;2023-07-16T03:09:13;18.20;99.90
51908;DHT22;39320;53.214;6.556;2023-07-16T03:11:39;18.20;99.90
51908;DHT22;39320;53.214;6.556;2023-07-16T03:14:05;18.10;99.90
51908;DHT22;39320;53.214;6.556;2023-07-16T03:16:31;18.10;99.90
51908;DHT22;39320;53.214;6.556;2023-07-16T03:18:57;18.10;99.90
51908;DHT22;39320;53.214;6.556;2023-07-16T03:21:22;18.10;99.90
51908;DHT22;39320;53.214;6.556;2023-07-16T03:23:48;18.00;99.90
51908;DHT22;39320;53.214;6.556;2023-07-16T03:26:14;18.10;99.90
51908;DHT22;39320;53.214;6.556;2023-07-16T03:28:39;18.00;99.90
51908;DHT22;39320;53.214;6.556;2023-07-16T03:31:05;18.10;99.90
51908;DHT22;39320;53.214;6.556;2023-07-16T03:33:31;18.00;99.90
51908;DHT22;39320;53.214;6.556;2023-07-16T03:35:56;18.10;99.90
51908;DHT22;39320;53.214;6.556;2023-07-16T03:38:22;18.10;99.90
51908;DHT22;39320;53.214;6.556;2023-07-16T03:40:49;18.10;99.90
51908;DHT22;39320;53.214;6.556;2023-07-16T03:43:16;18.00;99.90
51908;DHT22;39320;53.214;6.556;2023-07-16T03:45:42;18.10;99.90
51908;DHT22;39320;53.214;6.556;2023-07-16T03:48:08;18.00;99.90
51908;DHT22;39320;53.214;6.556;2023-07-16T03:50:34;18.00;99.90
51908;DHT22;39320;53.214;6.556;2023-07-16T03:53:00;18.00;99.90
51908;DHT22;39320;53.214;6.556;2023-07-16T03:55:26;18.00;99.90
51908;DHT22;39320;53.214;6.556;2023-07-16T03:57:52;17.90;99.90
51908;DHT22;39320;53.214;6.556;2023-07-16T04:00:18;17.90;99.90
51908;DHT22;39320;53.214;6.556;2023-07-16T04:02:44;18.00;99.90
51908;DHT22;39320;53.214;6.556;2023-07-16T04:05:09;17.90;99.90
51908;DHT22;39320;53.214;6.556;2023-07-16T04:07:35;18.00;99.90
51908;DHT22;39320;53.214;6.556;2023-07-16T04:10:01;17.90;99.90
51908;DHT22;39320;53.214;6.556;2023-07-16T04:12:27;17.90;99.90
51908;DHT22;39320;53.214;6.556;2023-07-16T04:14:58;17.90;99.90
51908;DHT22;39320;53.214;6.556;2023-07-16T04:17:24;18.00;99.90
51908;DHT22;39320;53.214;6.556;2023-07-16T04:19:50;17.90;99.90
51908;DHT22;39320;53.214;6.556;2023-07-16T04:22:16;17.90;99.90
51908;DHT22;39320;53.214;6.556;2023-07-16T04:24:42;17.90;99.90
51908;DHT22;39320;53.214;6.556;2023-07-16T04:27:07;17.90;99.90
51908;DHT22;39320;53.214;6.556;2023-07-16T04:29:33;17.90;99.90
51908;DHT22;39320;53.214;6.556;2023-07-16T04:31:59;17.90;99.90
51908;DHT22;39320;53.214;6.556;2023-07-16T04:34:25;17.90;99.90
51908;DHT22;39320;53.214;6.556;2023-07-16T04:36:50;17.90;99.90
51908;DHT22;39320;53.214;6.556;2023-07-16T04:39:16;17.90;99.90
51908;DHT22;39320;53.214;6.556;2023-07-16T04:41:42;17.90;99.90
51908;DHT22;39320;53.214;6.556;2023-07-16T04:44:08;17.90;99.90
51908;DHT22;39320;53.214;6.556;2023-07-16T04:46:33;18.00;99.90
51908;DHT22;39320;53.214;6.556;2023-07-16T04:48:59;18.00;99.90
51908;DHT22;39320;53.214;6.556;2023-07-16T04:51:25;18.00;99.90
51908;DHT22;39320;53.214;6.556;2023-07-16T04:53:51;18.00;99.90
51908;DHT22;39320;53.214;6.556;2023-07-16T04:56:17;18.00;99.90
51908;DHT22;39320;53.214;6.556;2023-07-16T04:58:42;17.90;99.90
51908;DHT22;39320;53.214;6.556;2023-07-16T05:01:09;18.00;99.90
51908;DHT22;39320;53.214;6.556;2023-07-16T05:03:35;18.00;99.90
51908;DHT22;39320;53.214;6.556;2023-07-16T05:06:02;18.00;99.90
51908;DHT22;39320;53.214;6.556;2023-07-16T05:08:27;18.00;99.90
51908;DHT22;39320;53.214;6.556;2023-07-16T05:10:54;18.10;99.90
51908;DHT22;39320;53.214;6.556;2023-07-16T05:13:20;18.10;99.90
51908;DHT22;39320;53.214;6.556;2023-07-16T05:15:46;18.10;99.90
51908;DHT22;39320;53.214;6.556;2023-07-16T05:18:11;18.10;99.90
51908;DHT22;39320;53.214;6.556;2023-07-16T05:20:37;18.20;99.90
51908;DHT22;39320;53.214;6.556;2023-07-16T05:23:03;18.20;99.90
51908;DHT22;39320;53.214;6.556;2023-07-16T05:25:29;18.30;99.90
51908;DHT22;39320;53.214;6.556;2023-07-16T05:27:55;18.20;99.90
51908;DHT22;39320;53.214;6.556;2023-07-16T05:30:21;18.30;99.90
51908;DHT22;39320;53.214;6.556;2023-07-16T05:32:47;18.30;99.90
51908;DHT22;39320;53.214;6.556;2023-07-16T05:35:13;18.30;99.90
51908;DHT22;39320;53.214;6.556;2023-07-16T05:37:38;18.40;99.90
51908;DHT22;39320;53.214;6.556;2023-07-16T05:40:05;18.30;99.90
51908;DHT22;39320;53.214;6.556;2023-07-16T05:42:31;18.40;99.90
51908;DHT22;39320;53.214;6.556;2023-07-16T05:44:57;18.40;99.90
51908;DHT22;39320;53.214;6.556;2023-07-16T05:47:22;18.40;99.90
51908;DHT22;39320;53.214;6.556;2023-07-16T05:49:48;18.40;99.90
51908;DHT22;39320;53.214;6.556;2023-07-16T05:52:14;18.40;99.90
51908;DHT22;39320;53.214;6.556;2023-07-16T05:54:40;18.40;99.90
51908;DHT22;39320;53.214;6.556;2023-07-16T05:57:05;18.40;99.90
51908;DHT22;39320;53.214;6.556;2023-07-16T05:59:31;18.40;99.90
51908;DHT22;39320;53.214;6.556;2023-07-16T06:02:01;18.40;99.90
51908;DHT22;39320;53.214;6.556;2023-07-16T06:04:27;18.40;99.90
51908;DHT22;39320;53.214;6.556;2023-07-16T06:06:53;18.50;99.90
51908;DHT22;39320;53.214;6.556;2023-07-16T06:09:19;18.40;99.90
51908;DHT22;39320;53.214;6.556;2023-07-16T06:11:48;18.40;99.90
51908;DHT22;39320;53.214;6.556;2023-07-16T06:14:14;18.50;99.90
51908;DHT22;39320;53.214;6.556;2023-07-16T06:16:39;18.50;99.90
51908;DHT22;39320;53.214;6.556;2023-07-16T06:19:05;18.50;99.90
51908;DHT22;39320;53.214;6.556;2023-07-16T06:21:31;18.50;99.90
51908;DHT22;39320;53.214;6.556;2023-07-16T06:23:56;18.50;99.90
51908;DHT22;39320;53.214;6.556;2023-07-16T06:26:22;18.50;99.90
51908;DHT22;39320;53.214;6.556;2023-07-16T06:28:48;18.50;99.90
51908;DHT22;39320;53.214;6.556;2023-07-16T06:31:16;18.50;99.90
51908;DHT22;39320;53.214;6.556;2023-07-16T06:33:42;18.50;99.90
51908;DHT22;39320;53.214;6.556;2023-07-16T06:36:07;18.50;99.90
51908;DHT22;39320;53.214;6.556;2023-07-16T06:38:33;18.50;99.90
51908;DHT22;39320;53.214;6.556;2023-07-16T06:40:59;18.50;99.90
51908;DHT22;39320;53.214;6.556;2023-07-16T06:43:25;18.50;99.90
51908;DHT22;39320;53.214;6.556;2023-07-16T06:45:51;18.50;99.90
51908;DHT22;39320;53.214;6.556;2023-07-16T06:48:16;18.50;99.90
51908;DHT22;39320;53.214;6.556;2023-07-16T06:50:43;18.50;99.90
51908;DHT22;39320;53.214;6.556;2023-07-16T06:53:09;18.50;99.90
51908;DHT22;39320;53.214;6.556;2023-07-16T06:55:35;18.50;99.90
51908;DHT22;39320;53.214;6.556;2023-07-16T06:58:01;18.50;99.90
51908;DHT22;39320;53.214;6.556;2023-07-16T07:00:27;18.60;99.90
51908;DHT22;39320;53.214;6.556;2023-07-16T07:02:52;18.50;99.90
51908;DHT22;39320;53.214;6.556;2023-07-16T07:05:18;18.60;99.90
51908;DHT22;39320;53.214;6.556;2023-07-16T07:07:45;18.60;99.90
51908;DHT22;39320;53.214;6.556;2023-07-16T07:10:11;18.60;99.90
51908;DHT22;39320;53.214;6.556;2023-07-16T07:12:38;18.60;99.90
51908;DHT22;39320;53.214;6.556;2023-07-16T07:15:07;18.60;99.90
51908;DHT22;39320;53.214;6.556;2023-07-16T07:17:34;18.70;99.90
51908;DHT22;39320;53.214;6.556;2023-07-16T07:20:03;18.50;99.90
51908;DHT22;39320;53.214;6.556;2023-07-16T07:22:31;18.70;99.90
51908;DHT22;39320;53.214;6.556;2023-07-16T07:24:57;18.70;99.90
51908;DHT22;39320;53.214;6.556;2023-07-16T07:27:23;18.80;99.90
51908;DHT22;39320;53.214;6.556;2023-07-16T07:29:48;18.80;99.90
51908;DHT22;39320;53.214;6.556;2023-07-16T07:32:19;18.80;99.90
51908;DHT22;39320;53.214;6.556;2023-07-16T07:34:45;18.90;99.90
51908;DHT22;39320;53.214;6.556;2023-07-16T07:37:11;18.80;99.90
51908;DHT22;39320;53.214;6.556;2023-07-16T07:39:37;18.70;99.90
51908;DHT22;39320;53.214;6.556;2023-07-16T07:42:03;18.70;99.90
51908;DHT22;39320;53.214;6.556;2023-07-16T07:44:29;18.70;99.90
51908;DHT22;39320;53.214;6.556;2023-07-16T07:46:55;18.70;99.90
51908;DHT22;39320;53.214;6.556;2023-07-16T07:49:20;18.70;99.90
51908;DHT22;39320;53.214;6.556;2023-07-16T07:51:46;18.70;99.90
51908;DHT22;39320;53.214;6.556;2023-07-16T07:54:15;18.60;99.90
51908;DHT22;39320;53.214;6.556;2023-07-16T07:56:41;18.60;99.90
51908;DHT22;39320;53.214;6.556;2023-07-16T07:59:09;18.60;99.90
51908;DHT22;39320;53.214;6.556;2023-07-16T08:01:35;18.60;99.90
51908;DHT22;39320;53.214;6.556;2023-07-16T08:04:01;18.60;99.90
51908;DHT22;39320;53.214;6.556;2023-07-16T08:06:27;18.60;99.90
51908;DHT22;39320;53.214;6.556;2023-07-16T08:08:52;18.70;99.90
51908;DHT22;39320;53.214;6.556;2023-07-16T08:11:18;18.70;99.90
51908;DHT22;39320;53.214;6.556;2023-07-16T08:13:44;18.80;99.90
51908;DHT22;39320;53.214;6.556;2023-07-16T08:16:10;18.80;99.90
51908;DHT22;39320;53.214;6.556;2023-07-16T08:18:35;18.80;99.90
51908;DHT22;39320;53.214;6.556;2023-07-16T08:21:01;18.80;99.90
51908;DHT22;39320;53.214;6.556;2023-07-16T08:23:27;18.80;99.90
51908;DHT22;39320;53.214;6.556;2023-07-16T08:25:53;18.80;99.90
51908;DHT22;39320;53.214;6.556;2023-07-16T08:28:18;18.70;99.90
51908;DHT22;39320;53.214;6.556;2023-07-16T08:30:47;18.70;99.90
51908;DHT22;39320;53.214;6.556;2023-07-16T08:33:13;18.60;99.90
51908;DHT22;39320;53.214;6.556;2023-07-16T08:35:40;18.40;99.90
51908;DHT22;39320;53.214;6.556;2023-07-16T08:38:06;18.40;99.90
51908;DHT22;39320;53.214;6.556;2023-07-16T08:40:39;18.30;99.90
51908;DHT22;39320;53.214;6.556;2023-07-16T08:43:08;18.20;99.90
51908;DHT22;39320;53.214;6.556;2023-07-16T08:45:39;18.10;99.90
51908;DHT22;39320;53.214;6.556;2023-07-16T08:48:11;18.10;99.90
51908;DHT22;39320;53.214;6.556;2023-07-16T08:50:38;18.10;99.90
51908;DHT22;39320;53.214;6.556;2023-07-16T08:53:07;18.20;99.90
51908;DHT22;39320;53.214;6.556;2023-07-16T08:55:34;18.30;99.90
51908;DHT22;39320;53.214;6.556;2023-07-16T08:58:03;18.30;99.90
51908;DHT22;39320;53.214;6.556;2023-07-16T09:00:30;18.40;99.90
51908;DHT22;39320;53.214;6.556;2023-07-16T09:02:56;18.60;99.90
51908;DHT22;39320;53.214;6.556;2023-07-16T09:05:22;18.70;99.90
51908;DHT22;39320;53.214;6.556;2023-07-16T09:07:48;18.90;99.90
51908;DHT22;39320;53.214;6.556;2023-07-16T09:10:14;19.00;99.90
51908;DHT22;39320;53.214;6.556;2023-07-16T09:12:44;19.00;99.90
51908;DHT22;39320;53.214;6.556;2023-07-16T09:15:11;19.10;99.90
51908;DHT22;39320;53.214;6.556;2023-07-16T09:17:38;19.20;99.90
51908;DHT22;39320;53.214;6.556;2023-07-16T09:20:04;19.30;99.90
51908;DHT22;39320;53.214;6.556;2023-07-16T09:22:33;19.30;99.90
51908;DHT22;39320;53.214;6.556;2023-07-16T09:25:03;19.30;99.90
51908;DHT22;39320;53.214;6.556;2023-07-16T09:27:30;19.30;99.90
51908;DHT22;39320;53.214;6.556;2023-07-16T09:29:56;19.30;99.90
51908;DHT22;39320;53.214;6.556;2023-07-16T09:32:22;19.40;99.90
51908;DHT22;39320;53.214;6.556;2023-07-16T09:34:50;19.40;99.90
51908;DHT22;39320;53.214;6.556;2023-07-16T09:37:18;19.30;99.90
51908;DHT22;39320;53.214;6.556;2023-07-16T09:39:46;19.40;99.90
51908;DHT22;39320;53.214;6.556;2023-07-16T09:42:12;19.40;99.90
51908;DHT22;39320;53.214;6.556;2023-07-16T09:44:40;19.40;99.90
51908;DHT22;39320;53.214;6.556;2023-07-16T09:47:07;19.40;99.90
51908;DHT22;39320;53.214;6.556;2023-07-16T09:49:35;19.50;99.90
51908;DHT22;39320;53.214;6.556;2023-07-16T09:52:02;19.60;99.90
51908;DHT22;39320;53.214;6.556;2023-07-16T09:54:32;19.60;99.90
51908;DHT22;39320;53.214;6.556;2023-07-16T09:57:00;19.60;99.90
51908;DHT22;39320;53.214;6.556;2023-07-16T09:59:31;19.60;99.90
51908;DHT22;39320;53.214;6.556;2023-07-16T10:01:58;19.60;99.90
51908;DHT22;39320;53.214;6.556;2023-07-16T10:04:24;19.60;99.90
51908;DHT22;39320;53.214;6.556;2023-07-16T10:06:52;19.50;99.90
51908;DHT22;39320;53.214;6.556;2023-07-16T10:09:41;19.60;99.90
51908;DHT22;39320;53.214;6.556;2023-07-16T10:15:02;19.70;99.90
51908;DHT22;39320;53.214;6.556;2023-07-16T10:17:31;19.70;99.90
51908;DHT22;39320;53.214;6.556;2023-07-16T10:22:37;19.80;99.90
51908;DHT22;39320;53.214;6.556;2023-07-16T10:25:10;19.80;99.90
51908;DHT22;39320;53.214;6.556;2023-07-16T10:27:48;19.80;99.90
51908;DHT22;39320;53.214;6.556;2023-07-16T10:30:16;19.80;99.90
51908;DHT22;39320;53.214;6.556;2023-07-16T10:32:42;19.80;99.90
51908;DHT22;39320;53.214;6.556;2023-07-16T10:35:09;19.90;99.90
51908;DHT22;39320;53.214;6.556;2023-07-16T10:37:35;19.90;99.90
51908;DHT22;39320;53.214;6.556;2023-07-16T10:40:02;19.90;99.90
51908;DHT22;39320;53.214;6.556;2023-07-16T10:42:32;19.90;99.90
51908;DHT22;39320;53.214;6.556;2023-07-16T10:45:03;19.90;99.90
51908;DHT22;39320;53.214;6.556;2023-07-16T10:47:31;19.80;99.90
51908;DHT22;39320;53.214;6.556;2023-07-16T10:49:57;19.80;99.90
51908;DHT22;39320;53.214;6.556;2023-07-16T10:52:23;19.70;99.90
51908;DHT22;39320;53.214;6.556;2023-07-16T10:54:53;19.70;99.90
51908;DHT22;39320;53.214;6.556;2023-07-16T10:57:24;19.80;99.90
51908;DHT22;39320;53.214;6.556;2023-07-16T10:59:55;19.90;99.90
51908;DHT22;39320;53.214;6.556;2023-07-16T11:02:22;19.90;99.90
51908;DHT22;39320;53.214;6.556;2023-07-16T11:04:49;19.90;99.90
51908;DHT22;39320;53.214;6.556;2023-07-16T11:07:15;19.90;99.90
51908;DHT22;39320;53.214;6.556;2023-07-16T11:09:44;20.00;99.90
51908;DHT22;39320;53.214;6.556;2023-07-16T11:12:15;20.10;99.90
51908;DHT22;39320;53.214;6.556;2023-07-16T11:14:46;20.20;99.90
51908;DHT22;39320;53.214;6.556;2023-07-16T11:17:13;20.10;99.90
51908;DHT22;39320;53.214;6.556;2023-07-16T11:19:40;20.20;99.90
51908;DHT22;39320;53.214;6.556;2023-07-16T11:22:07;20.20;99.90
51908;DHT22;39320;53.214;6.556;2023-07-16T11:24:40;20.10;99.90
51908;DHT22;39320;53.214;6.556;2023-07-16T11:27:25;20.10;99.90
51908;DHT22;39320;53.214;6.556;2023-07-16T11:29:54;20.10;99.90
51908;DHT22;39320;53.214;6.556;2023-07-16T11:32:33;20.10;99.90
51908;DHT22;39320;53.214;6.556;2023-07-16T11:35:00;20.00;99.90
51908;DHT22;39320;53.214;6.556;2023-07-16T11:37:29;20.00;99.90
51908;DHT22;39320;53.214;6.556;2023-07-16T11:39:59;20.00;99.90
51908;DHT22;39320;53.214;6.556;2023-07-16T11:42:29;19.90;99.90
51908;DHT22;39320;53.214;6.556;2023-07-16T11:44:56;20.00;99.90
51908;DHT22;39320;53.214;6.556;2023-07-16T11:47:23;20.00;99.90
51908;DHT22;39320;53.214;6.556;2023-07-16T11:49:49;20.10;99.90
51908;DHT22;39320;53.214;6.556;2023-07-16T11:52:18;20.00;99.90
51908;DHT22;39320;53.214;6.556;2023-07-16T11:54:44;20.00;99.90
51908;DHT22;39320;53.214;6.556;2023-07-16T11:57:10;20.00;99.90
51908;DHT22;39320;53.214;6.556;2023-07-16T11:59:35;19.90;99.90
51908;DHT22;39320;53.214;6.556;2023-07-16T12:02:01;19.80;99.90
51908;DHT22;39320;53.214;6.556;2023-07-16T12:04:28;19.80;99.90
51908;DHT22;39320;53.214;6.556;2023-07-16T12:06:54;19.80;99.90
51908;DHT22;39320;53.214;6.556;2023-07-16T12:09:20;19.80;99.90
51908;DHT22;39320;53.214;6.556;2023-07-16T12:11:46;19.60;99.90
51908;DHT22;39320;53.214;6.556;2023-07-16T12:14:12;19.60;99.90
51908;DHT22;39320;53.214;6.556;2023-07-16T12:16:38;19.60;99.90
51908;DHT22;39320;53.214;6.556;2023-07-16T12:19:06;19.60;99.90
51908;DHT22;39320;53.214;6.556;2023-07-16T12:21:32;19.70;99.90
51908;DHT22;39320;53.214;6.556;2023-07-16T12:23:58;19.80;99.90
51908;DHT22;39320;53.214;6.556;2023-07-16T12:26:24;19.80;99.90
51908;DHT22;39320;53.214;6.556;2023-07-16T12:28:49;19.80;99.90
51908;DHT22;39320;53.214;6.556;2023-07-16T12:31:15;19.80;99.90
51908;DHT22;39320;53.214;6.556;2023-07-16T12:33:42;19.70;99.90
51908;DHT22;39320;53.214;6.556;2023-07-16T12:36:08;19.70;99.90
51908;DHT22;39320;53.214;6.556;2023-07-16T12:38:34;19.70;99.90
51908;DHT22;39320;53.214;6.556;2023-07-16T12:41:00;19.60;99.90
51908;DHT22;39320;53.214;6.556;2023-07-16T12:43:25;19.60;99.90
51908;DHT22;39320;53.214;6.556;2023-07-16T12:45:51;19.70;99.90
51908;DHT22;39320;53.214;6.556;2023-07-16T12:48:17;19.60;99.90
51908;DHT22;39320;53.214;6.556;2023-07-16T12:50:43;19.70;99.90
51908;DHT22;39320;53.214;6.556;2023-07-16T12:53:09;19.60;99.90
51908;DHT22;39320;53.214;6.556;2023-07-16T12:55:35;19.60;99.90
51908;DHT22;39320;53.214;6.556;2023-07-16T12:58:00;19.70;99.90
51908;DHT22;39320;53.214;6.556;2023-07-16T13:00:26;19.70;99.90
51908;DHT22;39320;53.214;6.556;2023-07-16T13:02:52;19.70;99.90
51908;DHT22;39320;53.214;6.556;2023-07-16T13:05:18;19.70;99.90
51908;DHT22;39320;53.214;6.556;2023-07-16T13:07:44;19.70;99.90
51908;DHT22;39320;53.214;6.556;2023-07-16T13:10:10;19.70;99.90
51908;DHT22;39320;53.214;6.556;2023-07-16T13:12:37;19.70;99.90
51908;DHT22;39320;53.214;6.556;2023-07-16T13:15:03;19.70;99.90
51908;DHT22;39320;53.214;6.556;2023-07-16T13:17:28;19.80;99.90
51908;DHT22;39320;53.214;6.556;2023-07-16T13:19:54;19.80;99.90
51908;DHT22;39320;53.214;6.556;2023-07-16T13:22:26;19.70;99.90
51908;DHT22;39320;53.214;6.556;2023-07-16T13:24:52;19.80;99.90
51908;DHT22;39320;53.214;6.556;2023-07-16T13:27:23;19.90;99.90
51908;DHT22;39320;53.214;6.556;2023-07-16T13:29:49;20.00;99.90
51908;DHT22;39320;53.214;6.556;2023-07-16T13:32:15;20.20;99.90
51908;DHT22;39320;53.214;6.556;2023-07-16T13:34:41;20.30;99.90
51908;DHT22;39320;53.214;6.556;2023-07-16T13:37:07;20.40;99.90
51908;DHT22;39320;53.214;6.556;2023-07-16T13:39:33;20.50;99.90
51908;DHT22;39320;53.214;6.556;2023-07-16T13:41:59;20.60;99.90
51908;DHT22;39320;53.214;6.556;2023-07-16T13:44:25;20.70;99.90
51908;DHT22;39320;53.214;6.556;2023-07-16T13:46:50;20.70;99.90
51908;DHT22;39320;53.214;6.556;2023-07-16T13:49:16;20.70;99.90
51908;DHT22;39320;53.214;6.556;2023-07-16T13:51:42;20.80;99.90
51908;DHT22;39320;53.214;6.556;2023-07-16T13:54:11;20.90;99.90
51908;DHT22;39320;53.214;6.556;2023-07-16T13:56:37;21.00;99.90
51908;DHT22;39320;53.214;6.556;2023-07-16T13:59:02;21.00;99.90
51908;DHT22;39320;53.214;6.556;2023-07-16T14:01:29;21.00;99.90
51908;DHT22;39320;53.214;6.556;2023-07-16T14:03:55;21.00;99.90
51908;DHT22;39320;53.214;6.556;2023-07-16T14:06:21;20.90;99.90
51908;DHT22;39320;53.214;6.556;2023-07-16T14:08:47;20.80;99.90
51908;DHT22;39320;53.214;6.556;2023-07-16T14:11:13;20.80;99.90
51908;DHT22;39320;53.214;6.556;2023-07-16T14:13:39;20.70;99.90
51908;DHT22;39320;53.214;6.556;2023-07-16T14:16:05;20.70;99.90
51908;DHT22;39320;53.214;6.556;2023-07-16T14:18:31;20.70;99.90
51908;DHT22;39320;53.214;6.556;2023-07-16T14:20:57;20.70;99.90
51908;DHT22;39320;53.214;6.556;2023-07-16T14:23:22;20.80;99.90
51908;DHT22;39320;53.214;6.556;2023-07-16T14:25:49;20.80;99.90
51908;DHT22;39320;53.214;6.556;2023-07-16T14:28:14;20.80;99.90
51908;DHT22;39320;53.214;6.556;2023-07-16T14:30:40;20.80;99.90
51908;DHT22;39320;53.214;6.556;2023-07-16T14:33:06;20.80;99.90
51908;DHT22;39320;53.214;6.556;2023-07-16T14:35:33;20.80;99.90
51908;DHT22;39320;53.214;6.556;2023-07-16T14:37:59;20.90;99.90
51908;DHT22;39320;53.214;6.556;2023-07-16T14:40:25;21.00;99.90
51908;DHT22;39320;53.214;6.556;2023-07-16T14:42:51;21.10;99.90
51908;DHT22;39320;53.214;6.556;2023-07-16T14:45:17;21.20;99.90
51908;DHT22;39320;53.214;6.556;2023-07-16T14:47:43;21.20;99.90
51908;DHT22;39320;53.214;6.556;2023-07-16T14:50:09;21.20;99.90
51908;DHT22;39320;53.214;6.556;2023-07-16T14:52:35;21.20;99.90
51908;DHT22;39320;53.214;6.556;2023-07-16T14:55:02;21.20;99.90
51908;DHT22;39320;53.214;6.556;2023-07-16T14:57:30;21.20;99.90
51908;DHT22;39320;53.214;6.556;2023-07-16T14:59:55;21.10;99.90
51908;DHT22;39320;53.214;6.556;2023-07-16T15:02:22;21.10;99.90
51908;DHT22;39320;53.214;6.556;2023-07-16T15:04:48;21.20;99.90
51908;DHT22;39320;53.214;6.556;2023-07-16T15:07:13;21.20;99.90
51908;DHT22;39320;53.214;6.556;2023-07-16T15:09:39;21.30;99.90
51908;DHT22;39320;53.214;6.556;2023-07-16T15:12:06;21.40;99.90
51908;DHT22;39320;53.214;6.556;2023-07-16T15:14:32;21.30;99.90
51908;DHT22;39320;53.214;6.556;2023-07-16T15:16:58;21.10;99.90
51908;DHT22;39320;53.214;6.556;2023-07-16T15:19:24;20.90;99.90
51908;DHT22;39320;53.214;6.556;2023-07-16T15:21:50;20.80;99.90
51908;DHT22;39320;53.214;6.556;2023-07-16T15:24:15;20.80;99.90
51908;DHT22;39320;53.214;6.556;2023-07-16T15:26:42;20.70;99.90
51908;DHT22;39320;53.214;6.556;2023-07-16T15:29:08;20.70;99.90
51908;DHT22;39320;53.214;6.556;2023-07-16T15:31:33;20.70;99.90
51908;DHT22;39320;53.214;6.556;2023-07-16T15:33:59;20.70;99.90
51908;DHT22;39320;53.214;6.556;2023-07-16T15:36:25;20.70;99.90
51908;DHT22;39320;53.214;6.556;2023-07-16T15:38:52;20.60;99.90
51908;DHT22;39320;53.214;6.556;2023-07-16T15:41:18;20.60;99.90